Time;durP1;ratioP1;P1;durP2;ratioP2;P2;SDS_P1;SDS_P2;PMS_P1;PMS_P2;Temp;Humidity;BMP_temperature;BMP_pressure;BME280_temperature;BME280_humidity;BME280_pressure;Samples;Min_cycle;Max_cycle;Signal;HPM_P1;HPM_P2
2021/06/22 00:01:38;;;;;;;9.57;4.03;;;;;;;;;;8328708;28;20446;-67
2021/06/22 00:05:42;;;;;;;9.50;4.00;;;;;;;;;;8331925;28;20363;-67
2021/06/22 00:09:48;;;;;;;12.32;3.60;;;;;;;;;;8306073;28;20058;-68
2021/06/22 00:13:54;;;;;;;8.75;3.58;;;;;;;;;;8321403;28;20344;-68
2021/06/22 00:18:00;;;;;;;8.65;3.72;;;;;;;;;;8323374;28;20493;-68
2021/06/22 00:22:06;;;;;;;8.52;3.78;;;;;;;;;;8323446;28;20337;-68
2021/06/22 00:26:11;;;;;;;11.35;4.03;;;;;;;;;;8322255;28;20488;-68
2021/06/22 00:30:19;;;;;;;13.80;3.53;;;;;;;;;;8304902;28;20613;-67
2021/06/22 00:34:24;;;;;;;12.33;4.07;;;;;;;;;;8305636;28;20056;-68
2021/06/22 00:38:30;;;;;;;10.27;3.25;;;;;;;;;;8323185;28;20995;-67
2021/06/22 00:42:36;;;;;;;7.90;3.67;;;;;;;;;;8305634;28;20490;-67
2021/06/22 00:46:41;;;;;;;12.88;4.18;;;;;;;;;;8320989;28;20475;-67
2021/06/22 00:50:47;;;;;;;8.82;3.92;;;;;;;;;;8321071;28;20382;-68
2021/06/22 00:54:54;;;;;;;13.98;3.85;;;;;;;;;;8322507;28;20056;-67
2021/06/22 00:59:00;;;;;;;8.38;4.43;;;;;;;;;;8321065;28;20323;-68
2021/06/22 01:03:06;;;;;;;8.45;4.60;;;;;;;;;;8322930;28;20375;-67
2021/06/22 01:07:34;;;;;;;12.40;4.13;;;;;;;;;;8321758;28;20478;-67
2021/06/22 01:11:51;;;;;;;10.68;4.00;;;;;;;;;;8324065;28;20348;-67
2021/06/22 01:15:58;;;;;;;6.80;3.88;;;;;;;;;;8320930;28;20478;-67
2021/06/22 01:20:04;;;;;;;10.88;4.00;;;;;;;;;;8321301;28;20352;-67
2021/06/22 01:24:21;;;;;;;13.32;4.68;;;;;;;;;;8322617;28;20497;-67
2021/06/22 01:28:29;;;;;;;12.82;4.55;;;;;;;;;;8322658;28;20390;-67
2021/06/22 01:32:43;;;;;;;7.10;4.38;;;;;;;;;;8320194;28;20371;-68
2021/06/22 01:36:49;;;;;;;11.80;4.77;;;;;;;;;;8320859;28;20389;-67
2021/06/22 01:40:55;;;;;;;8.60;3.95;;;;;;;;;;8308311;28;20459;-67
2021/06/22 01:45:02;;;;;;;12.32;4.00;;;;;;;;;;8330237;28;20477;-68
2021/06/22 01:49:08;;;;;;;10.85;4.90;;;;;;;;;;8326724;28;20493;-68
2021/06/22 01:53:19;;;;;;;7.45;4.38;;;;;;;;;;8312969;28;20339;-67
2021/06/22 01:57:28;;;;;;;10.00;4.18;;;;;;;;;;8326059;28;20378;-67
2021/06/22 02:01:48;;;;;;;9.27;4.43;;;;;;;;;;8326765;28;20451;-67
2021/06/22 02:06:06;;;;;;;13.45;5.78;;;;;;;;;;8326384;28;20463;-67
2021/06/22 02:10:15;;;;;;;13.15;4.95;;;;;;;;;;8325401;28;20357;-67
2021/06/22 02:14:41;;;;;;;11.40;4.15;;;;;;;;;;8306183;28;20375;-68
2021/06/22 02:18:46;;;;;;;10.50;3.72;;;;;;;;;;8324986;28;20048;-67
2021/06/22 02:22:53;;;;;;;9.93;4.20;;;;;;;;;;8327287;28;20083;-67
2021/06/22 02:26:59;;;;;;;9.13;4.53;;;;;;;;;;8325448;28;20354;-67
2021/06/22 02:31:04;;;;;;;9.15;4.55;;;;;;;;;;8308541;28;20482;-67
2021/06/22 02:35:14;;;;;;;14.80;4.03;;;;;;;;;;8326937;28;20375;-67
2021/06/22 02:39:20;;;;;;;6.53;4.15;;;;;;;;;;8324810;28;20481;-68
2021/06/22 02:43:29;;;;;;;8.55;4.68;;;;;;;;;;8326501;28;20048;-68
2021/06/22 02:47:33;;;;;;;6.75;4.28;;;;;;;;;;8325492;28;20358;-68
2021/06/22 02:51:40;;;;;;;11.50;3.85;;;;;;;;;;8324035;28;20486;-67
2021/06/22 02:55:46;;;;;;;12.45;4.95;;;;;;;;;;8307871;28;20363;-67
2021/06/22 02:59:53;;;;;;;13.18;5.15;;;;;;;;;;8324821;28;20351;-67
2021/06/22 03:04:02;;;;;;;10.85;4.45;;;;;;;;;;8308194;28;20328;-67
2021/06/22 03:08:07;;;;;;;13.88;4.85;;;;;;;;;;8307843;28;20504;-67
2021/06/22 03:12:15;;;;;;;10.32;4.80;;;;;;;;;;8324331;28;20063;-67
2021/06/22 03:16:43;;;;;;;8.70;4.80;;;;;;;;;;8325476;28;20455;-69
2021/06/22 03:20:49;;;;;;;11.85;4.65;;;;;;;;;;8290524;28;20390;-67
2021/06/22 03:24:57;;;;;;;10.93;4.85;;;;;;;;;;8307178;28;20353;-67
2021/06/22 03:29:04;;;;;;;9.93;4.55;;;;;;;;;;8292054;28;20352;-67
2021/06/22 03:33:26;;;;;;;11.45;5.18;;;;;;;;;;8292831;28;20471;-68
2021/06/22 03:37:32;;;;;;;12.40;4.68;;;;;;;;;;8291593;28;20052;-67
2021/06/22 03:41:38;;;;;;;15.20;4.95;;;;;;;;;;8306539;28;20502;-67
2021/06/22 03:45:45;;;;;;;9.23;4.47;;;;;;;;;;8306333;28;20475;-67
2021/06/22 03:49:51;;;;;;;13.90;5.75;;;;;;;;;;8291024;28;20497;-67
2021/06/22 03:53:56;;;;;;;7.30;4.20;;;;;;;;;;8291049;28;20097;-67
2021/06/22 03:58:05;;;;;;;13.80;4.40;;;;;;;;;;8306626;28;20385;-67
2021/06/22 04:02:24;;;;;;;9.88;4.18;;;;;;;;;;8290599;28;20392;-67
2021/06/22 04:06:29;;;;;;;9.30;4.85;;;;;;;;;;8291210;28;20329;-67
2021/06/22 04:10:39;;;;;;;11.48;4.75;;;;;;;;;;8290111;28;20447;-69
2021/06/22 04:14:44;;;;;;;12.38;4.80;;;;;;;;;;8306111;28;20367;-67
2021/06/22 04:18:50;;;;;;;11.60;4.90;;;;;;;;;;8304733;28;20345;-67
2021/06/22 04:23:01;;;;;;;10.52;4.63;;;;;;;;;;8305184;28;20501;-67
2021/06/22 04:27:07;;;;;;;7.95;4.75;;;;;;;;;;8305768;28;20505;-67
2021/06/22 04:31:12;;;;;;;10.23;4.35;;;;;;;;;;8323088;28;20110;-69
2021/06/22 04:35:23;;;;;;;7.13;4.60;;;;;;;;;;8322301;28;20056;-68
2021/06/22 04:39:30;;;;;;;8.98;4.80;;;;;;;;;;8322468;28;20385;-68
2021/06/22 04:43:36;;;;;;;14.40;5.43;;;;;;;;;;8305375;28;20464;-67
2021/06/22 04:47:41;;;;;;;10.52;4.78;;;;;;;;;;8322286;28;20486;-68
2021/06/22 04:51:47;;;;;;;17.40;5.30;;;;;;;;;;8325724;28;20383;-68
2021/06/22 04:55:54;;;;;;;15.48;4.45;;;;;;;;;;8305276;28;20375;-67
2021/06/22 04:59:59;;;;;;;19.42;5.45;;;;;;;;;;8322895;28;20490;-68
2021/06/22 05:04:06;;;;;;;9.75;4.82;;;;;;;;;;8306967;28;20401;-67
2021/06/22 05:08:11;;;;;;;10.38;4.45;;;;;;;;;;8305289;28;20048;-68
2021/06/22 05:12:16;;;;;;;10.38;3.50;;;;;;;;;;8304464;28;20482;-67
2021/06/22 05:16:22;;;;;;;12.77;4.30;;;;;;;;;;8327562;28;20386;-68
2021/06/22 05:20:28;;;;;;;12.02;4.15;;;;;;;;;;8328530;28;20423;-67
2021/06/22 05:24:34;;;;;;;13.65;4.35;;;;;;;;;;8311189;28;20375;-67
2021/06/22 05:28:40;;;;;;;13.35;4.70;;;;;;;;;;8328139;28;20375;-68
2021/06/22 05:32:46;;;;;;;12.00;4.82;;;;;;;;;;8328505;28;20493;-67
2021/06/22 05:36:52;;;;;;;8.13;4.10;;;;;;;;;;8326977;28;20470;-67
2021/06/22 06:01:37;;;;;;;11.73;3.72;;;;;;;;;;8366405;27;977735;-68
2021/06/22 06:05:41;;;;;;;14.00;4.20;;;;;;;;;;8350453;28;20623;-68
2021/06/22 06:09:47;;;;;;;12.75;3.78;;;;;;;;;;8366779;28;20070;-70
2021/06/22 06:13:52;;;;;;;9.55;3.80;;;;;;;;;;8367745;28;20477;-69
2021/06/22 06:17:58;;;;;;;7.57;3.30;;;;;;;;;;8368591;28;20654;-69
2021/06/22 06:22:03;;;;;;;11.57;3.75;;;;;;;;;;8366168;28;20085;-68
2021/06/22 06:26:11;;;;;;;11.07;3.75;;;;;;;;;;8368439;28;20448;-72
2021/06/22 06:30:22;;;;;;;13.02;3.88;;;;;;;;;;8363700;28;20530;-72
2021/06/22 06:34:28;;;;;;;9.43;3.75;;;;;;;;;;8364985;28;20738;-68
2021/06/22 06:38:33;;;;;;;6.70;2.90;;;;;;;;;;8363652;28;20493;-70
2021/06/22 06:42:39;;;;;;;7.70;2.85;;;;;;;;;;8345880;28;20359;-70
2021/06/22 06:46:45;;;;;;;5.20;2.97;;;;;;;;;;8344944;28;20420;-66
2021/06/22 06:50:50;;;;;;;9.05;3.60;;;;;;;;;;8363439;28;20390;-66
2021/06/22 06:54:56;;;;;;;7.90;2.80;;;;;;;;;;8363389;28;20385;-67
2021/06/22 06:59:01;;;;;;;11.73;3.03;;;;;;;;;;8342059;28;20517;-66
2021/06/22 07:03:07;;;;;;;16.55;3.60;;;;;;;;;;8340249;28;20504;-67
2021/06/22 07:07:12;;;;;;;10.30;2.30;;;;;;;;;;8323048;28;20382;-67
2021/06/22 07:11:20;;;;;;;7.63;2.97;;;;;;;;;;8341351;28;20055;-67
2021/06/22 07:15:27;;;;;;;6.57;2.63;;;;;;;;;;8323693;28;20450;-67
2021/06/22 07:19:33;;;;;;;;;;;;;;;;;;8338876;28;20493;-67
2021/06/22 07:23:37;;;;;;;4.60;2.42;;;;;;;;;;8359113;28;20287;-67
2021/06/22 07:27:43;;;;;;;8.10;2.77;;;;;;;;;;8343439;28;20066;-69
2021/06/22 07:31:48;;;;;;;7.38;3.00;;;;;;;;;;8343523;28;20370;-69
2021/06/22 07:35:54;;;;;;;14.60;2.87;;;;;;;;;;8343116;28;20481;-69
2021/06/22 07:40:00;;;;;;;7.00;2.83;;;;;;;;;;8360957;28;20378;-70
2021/06/22 07:44:05;;;;;;;9.15;2.75;;;;;;;;;;8362188;28;20451;-70
2021/06/22 07:48:11;;;;;;;5.68;2.67;;;;;;;;;;8344116;28;20405;-69
2021/06/22 07:52:17;;;;;;;9.48;3.53;;;;;;;;;;8341452;28;20051;-67
2021/06/22 07:56:22;;;;;;;11.45;3.38;;;;;;;;;;8359226;28;20390;-68
2021/06/22 08:00:46;;;;;;;7.07;3.05;;;;;;;;;;8301989;28;20371;-68
2021/06/22 08:04:51;;;;;;;6.80;3.17;;;;;;;;;;8293636;28;20493;-67
2021/06/22 08:08:56;;;;;;;9.07;4.05;;;;;;;;;;8293992;28;20404;-68
2021/06/22 08:13:02;;;;;;;12.37;3.57;;;;;;;;;;8291609;28;20479;-67
2021/06/22 08:17:07;;;;;;;12.80;3.30;;;;;;;;;;8292960;28;20483;-69
2021/06/22 08:21:12;;;;;;;10.18;3.25;;;;;;;;;;8293996;28;20353;-69
2021/06/22 08:25:18;;;;;;;11.45;3.33;;;;;;;;;;8292820;28;20418;-68
2021/06/22 08:29:24;;;;;;;11.98;3.20;;;;;;;;;;8290991;28;20460;-69
2021/06/22 08:33:30;;;;;;;11.50;2.97;;;;;;;;;;8292771;28;20399;-68
2021/06/22 08:37:35;;;;;;;12.20;3.30;;;;;;;;;;8291928;28;20371;-68
2021/06/22 08:41:42;;;;;;;4.78;3.20;;;;;;;;;;8290035;28;20479;-68
2021/06/22 08:45:48;;;;;;;14.50;5.33;;;;;;;;;;8287833;28;20379;-68
2021/06/22 09:02:24;;;;;;;13.02;6.10;;;;;;;;;;8370137;27;1277830;-67
2021/06/22 09:06:43;;;;;;;12.52;6.50;;;;;;;;;;8367359;28;20362;-67
2021/06/22 09:10:53;;;;;;;13.20;7.35;;;;;;;;;;8383483;28;20051;-67
2021/06/22 09:14:58;;;;;;;17.33;8.35;;;;;;;;;;8367912;28;20373;-67
2021/06/22 09:19:11;;;;;;;11.82;7.10;;;;;;;;;;8384376;28;20360;-67
2021/06/22 09:23:22;;;;;;;16.70;6.55;;;;;;;;;;8385095;28;20358;-67
2021/06/22 09:27:55;;;;;;;10.45;6.68;;;;;;;;;;8364668;28;20450;-67
2021/06/22 09:32:01;;;;;;;14.20;7.05;;;;;;;;;;8349319;28;20374;-68
2021/06/22 09:36:21;;;;;;;11.90;6.28;;;;;;;;;;8384708;28;20066;-67
2021/06/22 09:40:30;;;;;;;12.85;5.63;;;;;;;;;;8383363;28;20384;-70
2021/06/22 09:44:36;;;;;;;9.98;5.57;;;;;;;;;;8384955;28;20336;-68
2021/06/22 09:48:55;;;;;;;9.73;5.47;;;;;;;;;;8348965;28;20606;-68
2021/06/22 09:53:26;;;;;;;11.85;6.50;;;;;;;;;;8383892;28;20386;-69
2021/06/22 09:57:31;;;;;;;9.32;5.35;;;;;;;;;;8383588;28;20051;-68
2021/06/22 10:01:37;;;;;;;11.45;6.93;;;;;;;;;;8353035;28;20439;-68
2021/06/22 10:05:54;;;;;;;12.37;6.53;;;;;;;;;;8359918;28;20576;-70
2021/06/22 10:10:03;;;;;;;12.55;5.65;;;;;;;;;;8344254;28;20499;-69
2021/06/22 10:14:26;;;;;;;9.00;5.85;;;;;;;;;;8342886;28;20417;-68
2021/06/22 10:18:32;;;;;;;13.63;6.38;;;;;;;;;;8359181;28;20351;-68
2021/06/22 10:22:39;;;;;;;20.30;7.55;;;;;;;;;;8358759;28;20358;-69
2021/06/22 10:26:44;;;;;;;18.98;8.43;;;;;;;;;;8342615;28;20660;-69
2021/06/22 10:30:50;;;;;;;12.52;6.93;;;;;;;;;;8342667;28;20382;-68
2021/06/22 10:34:58;;;;;;;15.10;7.00;;;;;;;;;;8342088;28;20047;-72
2021/06/22 10:39:13;;;;;;;16.92;7.07;;;;;;;;;;8342753;28;20055;-68
2021/06/22 10:43:35;;;;;;;10.68;6.55;;;;;;;;;;8341706;28;20450;-69
2021/06/22 10:47:45;;;;;;;32.00;8.27;;;;;;;;;;8359115;28;20374;-68
2021/06/22 10:51:50;;;;;;;10.10;6.38;;;;;;;;;;8341515;28;20496;-69
2021/06/22 10:55:58;;;;;;;9.80;6.28;;;;;;;;;;8342135;28;20478;-68
2021/06/22 11:00:04;;;;;;;18.08;6.78;;;;;;;;;;8340808;28;20364;-68
2021/06/22 11:04:10;;;;;;;11.18;6.10;;;;;;;;;;8358180;28;20383;-69
2021/06/22 11:08:15;;;;;;;8.38;6.40;;;;;;;;;;8324412;28;20478;-69
2021/06/22 11:12:21;;;;;;;10.93;5.63;;;;;;;;;;8339595;28;20359;-69
2021/06/22 11:16:33;;;;;;;16.70;6.82;;;;;;;;;;8361317;28;20493;-68
2021/06/22 11:20:43;;;;;;;9.15;5.07;;;;;;;;;;8358547;28;20394;-69
2021/06/22 11:25:00;;;;;;;9.60;4.22;;;;;;;;;;8357023;28;20445;-68
2021/06/22 11:29:06;;;;;;;10.85;4.68;;;;;;;;;;8324683;28;20376;-72
2021/06/22 11:33:29;;;;;;;14.85;5.38;;;;;;;;;;8323485;28;20362;-69
2021/06/22 11:37:34;;;;;;;8.40;4.38;;;;;;;;;;8358027;28;20366;-69
2021/06/22 11:41:40;;;;;;;9.50;4.75;;;;;;;;;;8323639;28;20484;-69
2021/06/22 11:45:45;;;;;;;11.55;5.60;;;;;;;;;;8358955;28;20467;-69
2021/06/22 11:49:49;;;;;;;15.98;5.90;;;;;;;;;;8357143;28;20458;-70
2021/06/22 11:53:55;;;;;;;18.27;4.95;;;;;;;;;;8357101;28;20462;-69
2021/06/22 11:58:02;;;;;;;10.33;5.23;;;;;;;;;;8339043;28;20356;-69
2021/06/22 12:02:07;;;;;;;8.68;4.47;;;;;;;;;;8359871;27;20079;-69
2021/06/22 12:06:12;;;;;;;16.52;4.78;;;;;;;;;;8357006;28;20354;-69
2021/06/22 12:10:21;;;;;;;12.93;4.63;;;;;;;;;;8356469;28;20112;-69
2021/06/22 12:14:27;;;;;;;9.32;5.05;;;;;;;;;;8338732;28;20513;-68
2021/06/22 12:18:34;;;;;;;7.85;4.15;;;;;;;;;;8357094;28;20390;-69
2021/06/22 12:22:39;;;;;;;6.30;4.70;;;;;;;;;;8338417;28;20375;-69
2021/06/22 12:26:48;;;;;;;8.38;4.03;;;;;;;;;;8357735;28;20505;-70
2021/06/22 12:30:59;;;;;;;14.20;4.40;;;;;;;;;;8339497;28;20483;-69
2021/06/22 12:35:05;;;;;;;13.07;4.57;;;;;;;;;;8355504;28;20497;-72
2021/06/22 12:39:11;;;;;;;7.50;4.88;;;;;;;;;;8356834;28;20365;-69
2021/06/22 12:43:19;;;;;;;13.68;5.03;;;;;;;;;;8358091;28;20427;-69
2021/06/22 12:47:26;;;;;;;8.23;4.47;;;;;;;;;;8321454;28;20478;-70
2021/06/22 12:51:38;;;;;;;8.73;4.03;;;;;;;;;;8356293;28;20348;-69
2021/06/22 12:55:47;;;;;;;10.38;3.97;;;;;;;;;;8354692;28;20483;-69
2021/06/22 12:59:54;;;;;;;8.35;3.70;;;;;;;;;;8322177;28;20074;-69
2021/06/22 13:04:01;;;;;;;9.38;3.80;;;;;;;;;;8337594;28;20493;-69
2021/06/22 13:08:09;;;;;;;6.90;3.55;;;;;;;;;;8354977;28;20455;-69
2021/06/22 13:12:30;;;;;;;7.03;3.75;;;;;;;;;;8337533;28;20379;-69
2021/06/22 13:16:36;;;;;;;10.98;3.90;;;;;;;;;;8338636;28;20393;-69
2021/06/22 13:20:45;;;;;;;9.52;3.70;;;;;;;;;;8338681;28;20066;-70
2021/06/22 13:24:53;;;;;;;8.88;4.18;;;;;;;;;;8337463;28;20387;-70
2021/06/22 13:29:01;;;;;;;5.93;3.30;;;;;;;;;;8355854;28;20362;-69
2021/06/22 13:33:05;;;;;;;7.77;3.70;;;;;;;;;;8344030;28;20502;-69
2021/06/22 13:37:10;;;;;;;4.50;3.60;;;;;;;;;;8360320;28;20066;-70
2021/06/22 13:41:16;;;;;;;8.98;4.43;;;;;;;;;;8327675;28;20401;-71
2021/06/22 13:45:22;;;;;;;10.00;3.58;;;;;;;;;;8362434;28;20439;-69
2021/06/22 13:49:42;;;;;;;8.85;3.50;;;;;;;;;;8360767;28;20455;-69
2021/06/22 13:53:48;;;;;;;20.52;3.92;;;;;;;;;;8361096;28;20577;-70
2021/06/22 13:57:53;;;;;;;9.67;3.60;;;;;;;;;;8343513;28;20461;-69
2021/06/22 14:01:59;;;;;;;5.75;3.60;;;;;;;;;;8309398;28;20812;-70
2021/06/22 14:06:05;;;;;;;6.88;3.38;;;;;;;;;;8359935;28;20451;-69
2021/06/22 14:10:11;;;;;;;8.48;3.10;;;;;;;;;;8327022;28;20356;-70
2021/06/22 14:14:17;;;;;;;12.43;3.30;;;;;;;;;;8361997;28;20344;-67
2021/06/22 14:18:23;;;;;;;7.28;3.60;;;;;;;;;;8363111;28;20055;-68
2021/06/22 14:22:29;;;;;;;13.10;3.22;;;;;;;;;;8359098;28;20356;-68
2021/06/22 14:26:34;;;;;;;10.13;3.30;;;;;;;;;;8359191;28;20364;-68
2021/06/22 14:30:40;;;;;;;7.65;2.85;;;;;;;;;;8360327;28;20354;-68
2021/06/22 14:34:45;;;;;;;4.32;2.45;;;;;;;;;;8362398;28;20477;-70
2021/06/22 14:38:49;;;;;;;8.23;3.42;;;;;;;;;;8359439;28;20375;-68
2021/06/22 14:42:57;;;;;;;6.70;3.10;;;;;;;;;;8361558;28;20077;-68
2021/06/22 14:47:02;;;;;;;9.20;3.83;;;;;;;;;;8358733;28;20051;-68
2021/06/22 14:51:07;;;;;;;8.15;3.50;;;;;;;;;;8358728;28;20462;-73
2021/06/22 14:55:31;;;;;;;12.60;3.47;;;;;;;;;;8359230;28;20496;-68
2021/06/22 14:59:39;;;;;;;5.80;2.67;;;;;;;;;;8359134;28;20343;-69
2021/06/22 15:03:44;;;;;;;10.75;3.75;;;;;;;;;;8361654;28;20442;-70
2021/06/22 15:07:49;;;;;;;10.52;3.58;;;;;;;;;;8360137;28;20485;-69
2021/06/22 15:11:57;;;;;;;6.57;3.30;;;;;;;;;;8357918;28;20441;-68
2021/06/22 15:16:03;;;;;;;7.82;3.75;;;;;;;;;;8359165;28;20477;-68
2021/06/22 15:20:10;;;;;;;10.43;4.15;;;;;;;;;;8340703;28;20389;-69
2021/06/22 15:24:30;;;;;;;11.80;3.67;;;;;;;;;;8358845;28;20450;-69
2021/06/22 15:28:35;;;;;;;9.95;4.07;;;;;;;;;;8360353;28;20043;-69
2021/06/22 15:32:48;;;;;;;10.52;3.65;;;;;;;;;;8358009;28;20488;-69
2021/06/22 15:36:53;;;;;;;12.10;4.47;;;;;;;;;;8339288;28;20373;-70
2021/06/22 15:40:58;;;;;;;18.35;4.47;;;;;;;;;;8357287;28;20467;-69
2021/06/22 15:45:04;;;;;;;7.95;3.42;;;;;;;;;;8339062;28;20489;-68
2021/06/22 15:49:10;;;;;;;12.75;3.67;;;;;;;;;;8360597;28;20412;-69
2021/06/22 15:53:16;;;;;;;9.82;4.43;;;;;;;;;;8357627;28;20470;-68
2021/06/22 15:57:22;;;;;;;13.00;4.10;;;;;;;;;;8357535;28;20416;-69
2021/06/22 16:01:28;;;;;;;14.63;3.92;;;;;;;;;;8358770;28;20487;-69
2021/06/22 16:05:33;;;;;;;44.55;6.03;;;;;;;;;;8356169;28;20056;-69
2021/06/22 16:09:40;;;;;;;16.17;4.18;;;;;;;;;;8338379;28;20388;-69
2021/06/22 16:13:45;;;;;;;12.17;3.50;;;;;;;;;;8357058;28;20386;-69
2021/06/22 16:17:49;;;;;;;17.70;5.32;;;;;;;;;;8338053;28;20458;-69
2021/06/22 16:21:54;;;;;;;15.20;4.70;;;;;;;;;;8358617;28;20387;-69
2021/06/22 16:25:58;;;;;;;15.30;4.40;;;;;;;;;;8357105;28;20051;-68
2021/06/22 16:30:05;;;;;;;12.57;3.67;;;;;;;;;;8357894;28;20420;-68
2021/06/22 16:34:10;;;;;;;15.70;3.45;;;;;;;;;;8337693;28;20409;-69
2021/06/22 16:38:15;;;;;;;9.95;3.13;;;;;;;;;;8357161;28;20469;-69
2021/06/22 16:42:21;;;;;;;11.00;3.60;;;;;;;;;;8358058;28;20370;-69
2021/06/22 16:46:26;;;;;;;11.10;3.40;;;;;;;;;;8357732;28;20408;-68
2021/06/22 16:50:32;;;;;;;7.53;3.63;;;;;;;;;;8339080;28;20699;-69
2021/06/22 16:54:38;;;;;;;9.68;3.53;;;;;;;;;;8337865;28;20471;-68
2021/06/22 16:58:44;;;;;;;10.90;4.20;;;;;;;;;;8323133;28;20347;-68
2021/06/22 17:02:48;;;;;;;7.40;3.25;;;;;;;;;;8337544;28;20940;-69
2021/06/22 17:06:53;;;;;;;6.43;3.30;;;;;;;;;;8336698;28;20455;-70
2021/06/22 17:10:59;;;;;;;7.20;2.85;;;;;;;;;;8339281;28;20381;-69
2021/06/22 17:15:07;;;;;;;9.15;3.05;;;;;;;;;;8345556;28;20486;-70
2021/06/22 17:19:12;;;;;;;9.40;2.85;;;;;;;;;;8343883;28;20805;-67
2021/06/22 17:23:18;;;;;;;8.18;3.08;;;;;;;;;;8343743;28;20501;-68
2021/06/22 17:27:23;;;;;;;11.05;3.15;;;;;;;;;;8362103;28;20458;-69
2021/06/22 17:31:29;;;;;;;9.88;3.28;;;;;;;;;;8327416;28;20043;-70
2021/06/22 17:35:36;;;;;;;11.13;3.25;;;;;;;;;;8362560;28;20044;-69
2021/06/22 17:39:41;;;;;;;;;;;;;;;;;;8360661;28;20481;-68
2021/06/22 17:43:46;;;;;;;12.43;3.25;;;;;;;;;;8328149;28;19942;-69
2021/06/22 17:47:56;;;;;;;12.45;3.30;;;;;;;;;;8361732;28;20496;-68
2021/06/22 17:52:04;;;;;;;14.20;3.13;;;;;;;;;;8344249;28;20059;-69
2021/06/22 17:56:21;;;;;;;8.00;2.70;;;;;;;;;;8363884;28;20401;-68
2021/06/22 18:00:32;;;;;;;9.95;2.95;;;;;;;;;;8360588;28;20381;-67
2021/06/22 18:04:37;;;;;;;9.70;2.75;;;;;;;;;;8361061;28;20478;-68
2021/06/22 18:08:43;;;;;;;5.93;2.65;;;;;;;;;;8363296;28;20420;-69
2021/06/22 18:12:51;;;;;;;12.45;2.58;;;;;;;;;;8344466;28;20051;-69
2021/06/22 18:16:56;;;;;;;13.07;4.18;;;;;;;;;;8342417;28;20480;-69
2021/06/22 18:21:02;;;;;;;8.93;4.20;;;;;;;;;;8359427;28;20066;-70
2021/06/22 18:25:10;;;;;;;18.33;4.80;;;;;;;;;;8342448;28;20482;-69
2021/06/22 18:29:15;;;;;;;12.05;4.07;;;;;;;;;;8342281;28;20370;-69
2021/06/22 18:33:21;;;;;;;18.05;4.72;;;;;;;;;;8360673;28;20451;-69
2021/06/22 18:37:26;;;;;;;16.02;4.53;;;;;;;;;;8358769;28;20044;-68
2021/06/22 18:41:32;;;;;;;7.50;4.28;;;;;;;;;;8359833;28;20531;-70
2021/06/22 18:45:38;;;;;;;10.88;4.57;;;;;;;;;;8341004;28;20363;-69
2021/06/22 18:49:44;;;;;;;14.50;4.75;;;;;;;;;;8360076;28;20346;-69
2021/06/22 18:53:50;;;;;;;9.82;4.05;;;;;;;;;;8341908;28;20394;-70
2021/06/22 18:57:55;;;;;;;9.77;4.85;;;;;;;;;;8358655;28;20470;-68
2021/06/22 19:02:01;;;;;;;9.23;4.57;;;;;;;;;;8358529;28;20463;-68
2021/06/22 19:06:06;;;;;;;8.32;4.20;;;;;;;;;;8340435;28;20370;-68
2021/06/22 19:10:17;;;;;;;37.00;19.00;;;;;;;;;;8325247;28;20566;-68
2021/06/22 19:14:28;;;;;;;64.93;33.60;;;;;;;;;;8357968;28;20370;-68
2021/06/22 19:18:35;;;;;;;20.27;8.68;;;;;;;;;;8357586;28;20451;-69
2021/06/22 19:22:41;;;;;;;8.20;4.38;;;;;;;;;;8358569;28;20066;-69
2021/06/22 19:26:47;;;;;;;12.90;4.70;;;;;;;;;;8339012;28;20465;-69
2021/06/22 19:30:52;;;;;;;11.07;4.50;;;;;;;;;;8357601;28;20485;-67
2021/06/22 19:35:04;;;;;;;18.05;4.85;;;;;;;;;;8338689;28;20465;-68
2021/06/22 19:39:10;;;;;;;;;;;;;;;;;;8358151;28;20412;-68
2021/06/22 19:43:17;;;;;;;8.60;4.10;;;;;;;;;;8337617;28;20265;-68
2021/06/22 19:47:21;;;;;;;10.00;4.07;;;;;;;;;;8357116;28;20489;-68
2021/06/22 19:51:29;;;;;;;9.00;4.75;;;;;;;;;;8357767;28;20396;-68
2021/06/22 19:55:34;;;;;;;9.88;4.40;;;;;;;;;;8338895;28;20078;-68
2021/06/22 19:59:40;;;;;;;9.48;3.80;;;;;;;;;;8357255;28;20081;-69
2021/06/22 20:03:46;;;;;;;8.43;3.70;;;;;;;;;;8357544;28;20457;-69
2021/06/22 20:07:51;;;;;;;8.07;3.85;;;;;;;;;;8339402;28;20478;-68
2021/06/22 20:11:57;;;;;;;8.93;4.00;;;;;;;;;;8358466;28;20351;-68
2021/06/22 20:16:03;;;;;;;12.27;4.35;;;;;;;;;;8339431;28;20458;-68
2021/06/22 20:20:09;;;;;;;11.80;4.05;;;;;;;;;;8311235;28;20475;-69
2021/06/22 20:24:14;;;;;;;10.32;4.90;;;;;;;;;;8325171;28;20451;-68
2021/06/22 20:28:21;;;;;;;17.35;8.93;;;;;;;;;;8324221;28;20504;-69
2021/06/22 20:32:27;;;;;;;203.82;91.10;;;;;;;;;;8325361;28;20082;-69
2021/06/22 20:36:33;;;;;;;172.43;94.38;;;;;;;;;;8322731;28;20360;-68
2021/06/22 20:40:38;;;;;;;47.55;26.80;;;;;;;;;;8323779;28;20458;-69
2021/06/22 20:44:43;;;;;;;41.95;22.52;;;;;;;;;;8323921;28;20520;-69
2021/06/22 20:48:49;;;;;;;11.93;4.45;;;;;;;;;;8323048;28;20383;-69
2021/06/22 20:52:54;;;;;;;13.20;5.35;;;;;;;;;;8322065;28;20414;-69
2021/06/22 20:57:00;;;;;;;11.73;4.70;;;;;;;;;;8321442;28;20479;-69
2021/06/22 21:01:05;;;;;;;10.38;4.68;;;;;;;;;;8323095;28;20363;-69
2021/06/22 21:05:11;;;;;;;9.95;4.70;;;;;;;;;;8323216;28;20489;-69
2021/06/22 21:09:19;;;;;;;14.02;5.05;;;;;;;;;;8322302;28;20371;-69
2021/06/22 21:13:25;;;;;;;9.10;4.18;;;;;;;;;;8322067;28;20479;-68
2021/06/22 21:17:30;;;;;;;5.70;4.35;;;;;;;;;;8322960;28;20074;-68
2021/06/22 21:21:36;;;;;;;9.75;4.47;;;;;;;;;;8321025;28;20463;-68
2021/06/22 21:25:42;;;;;;;11.50;4.97;;;;;;;;;;8304700;28;20463;-68
2021/06/22 21:29:48;;;;;;;14.27;5.43;;;;;;;;;;8321836;28;20482;-68
2021/06/22 21:33:54;;;;;;;11.23;5.68;;;;;;;;;;8322248;28;20372;-68
2021/06/22 21:38:01;;;;;;;7.97;5.30;;;;;;;;;;8323808;28;20695;-68
2021/06/22 21:42:09;;;;;;;8.35;5.57;;;;;;;;;;8321818;28;20067;-68
2021/06/22 21:46:15;;;;;;;8.85;5.45;;;;;;;;;;8319956;28;20417;-67
2021/06/22 21:50:20;;;;;;;9.05;5.43;;;;;;;;;;8321770;28;20048;-68
2021/06/22 21:54:27;;;;;;;;;;;;;;;;;;8303753;28;20378;-68
2021/06/22 21:58:33;;;;;;;12.95;6.50;;;;;;;;;;8326072;28;20312;-68
2021/06/22 22:02:39;;;;;;;12.63;6.95;;;;;;;;;;8329702;28;20463;-68
2021/06/22 22:06:44;;;;;;;11.88;6.97;;;;;;;;;;8326877;28;20367;-68
2021/06/22 22:10:49;;;;;;;8.38;6.80;;;;;;;;;;8327236;28;20379;-68
2021/06/22 22:14:54;;;;;;;13.32;7.45;;;;;;;;;;8327886;28;20063;-68
2021/06/22 22:19:00;;;;;;;14.70;6.60;;;;;;;;;;8310107;28;20509;-69
2021/06/22 22:23:06;;;;;;;12.13;6.97;;;;;;;;;;8309024;28;20497;-68
2021/06/22 22:27:12;;;;;;;11.20;6.70;;;;;;;;;;8309008;28;20378;-69
2021/06/22 22:31:19;;;;;;;9.50;6.45;;;;;;;;;;8309512;28;20436;-68
2021/06/22 22:35:24;;;;;;;9.52;6.32;;;;;;;;;;8328265;28;20477;-68
2021/06/22 22:39:29;;;;;;;12.05;7.10;;;;;;;;;;8326245;28;20044;-68
2021/06/22 22:43:36;;;;;;;15.32;7.07;;;;;;;;;;8326376;28;20475;-68
2021/06/22 22:47:42;;;;;;;9.32;7.05;;;;;;;;;;8326306;28;20474;-68
2021/06/22 22:51:48;;;;;;;10.98;6.72;;;;;;;;;;8327529;28;20358;-68
2021/06/22 22:55:53;;;;;;;11.68;6.72;;;;;;;;;;8308659;28;20501;-68
2021/06/22 23:00:00;;;;;;;8.80;7.13;;;;;;;;;;8325836;28;20056;-69
2021/06/22 23:04:07;;;;;;;13.38;6.95;;;;;;;;;;8307768;28;20418;-68
2021/06/22 23:08:12;;;;;;;10.82;7.00;;;;;;;;;;8326292;28;20359;-68
2021/06/22 23:12:18;;;;;;;17.35;7.47;;;;;;;;;;8326242;28;20355;-70
2021/06/22 23:16:22;;;;;;;11.73;6.82;;;;;;;;;;8326018;28;20486;-69
2021/06/22 23:20:28;;;;;;;9.45;6.55;;;;;;;;;;8327396;28;20668;-69
2021/06/22 23:24:35;;;;;;;12.88;6.30;;;;;;;;;;8324390;28;20379;-68
2021/06/22 23:28:41;;;;;;;8.85;6.03;;;;;;;;;;8324785;28;20048;-69
2021/06/22 23:32:46;;;;;;;12.98;7.90;;;;;;;;;;8324981;28;20685;-69
2021/06/22 23:36:52;;;;;;;12.98;6.25;;;;;;;;;;8323788;28;20371;-69
2021/06/22 23:40:57;;;;;;;12.25;6.95;;;;;;;;;;8307704;28;20391;-69
2021/06/22 23:45:07;;;;;;;13.77;7.28;;;;;;;;;;8324919;28;20363;-68
2021/06/22 23:49:11;;;;;;;15.18;8.00;;;;;;;;;;8325840;28;20390;-69
2021/06/22 23:53:17;;;;;;;14.70;7.68;;;;;;;;;;8306421;28;20414;-68
2021/06/22 23:57:23;;;;;;;12.23;7.07;;;;;;;;;;8307411;28;20462;-69
